createdAt,value
2019-03-18T00:01:17.563Z,100455.02
2019-03-18T00:03:48.884Z,100458.11
2019-03-18T00:06:20.087Z,100456.84
2019-03-18T00:08:51.408Z,100459.48
2019-03-18T00:11:22.763Z,100460.31
2019-03-18T00:13:54.082Z,100465.22
2019-03-18T00:16:25.473Z,100467.48
2019-03-18T00:18:58.153Z,100463.94
2019-03-18T00:21:30.010Z,100466.17
2019-03-18T00:24:01.869Z,100467.05
2019-03-18T00:26:33.479Z,100468.88
2019-03-18T00:29:04.775Z,100471.59
2019-03-18T00:31:36.079Z,100474.30
2019-03-18T00:34:07.392Z,100467.19
2019-03-18T00:36:38.719Z,100464.06
2019-03-18T00:39:10.056Z,100465.37
2019-03-18T00:41:41.400Z,100472.91
2019-03-18T00:44:12.687Z,100470.67
2019-03-18T00:46:43.883Z,100471.54
2019-03-18T00:49:15.065Z,100468.00
2019-03-18T00:51:46.361Z,100472.91
2019-03-18T00:54:17.679Z,100477.39
2019-03-18T00:56:49.059Z,100475.19
2019-03-18T00:59:20.356Z,100485.07
2019-03-18T01:01:51.661Z,100490.41
2019-03-18T01:04:23.024Z,100488.63
2019-03-18T01:06:54.374Z,100491.78
2019-03-18T01:09:25.645Z,100492.21
2019-03-18T01:11:57.238Z,100492.68
2019-03-18T01:14:28.527Z,100493.53
2019-03-18T01:16:59.923Z,100489.14
2019-03-18T01:19:31.148Z,100491.83
2019-03-18T01:22:03.190Z,100489.55
2019-03-18T01:24:34.965Z,100484.76
2019-03-18T01:27:06.728Z,100487.91
2019-03-18T01:29:38.569Z,100486.11
2019-03-18T01:32:10.121Z,100488.27
2019-03-18T01:34:41.485Z,100493.66
2019-03-18T01:37:12.809Z,100485.19
2019-03-18T01:39:44.042Z,100486.50
2019-03-18T01:42:16.882Z,100482.02
2019-03-18T01:44:48.344Z,100483.38
2019-03-18T01:47:19.653Z,100486.97
2019-03-18T01:49:50.888Z,100486.97
2019-03-18T01:52:22.156Z,100487.42
2019-03-18T01:54:53.426Z,100489.23
2019-03-18T01:57:24.666Z,100483.08
2019-03-18T01:59:55.875Z,100483.12
2019-03-18T02:02:27.097Z,100490.70
2019-03-18T02:04:58.419Z,100496.06
2019-03-18T02:07:29.706Z,100498.37
2019-03-18T02:10:00.955Z,100501.59
2019-03-18T02:12:32.237Z,100502.09
2019-03-18T02:15:03.764Z,100513.19
2019-03-18T02:17:35.206Z,100515.05
2019-03-18T02:20:12.210Z,100521.30
2019-03-18T02:22:43.621Z,100527.05
2019-03-18T02:25:15.025Z,100530.18
2019-03-18T02:27:46.354Z,100529.31
2019-03-18T02:30:18.897Z,100531.94
2019-03-18T02:32:50.283Z,100541.28
2019-03-18T02:35:21.540Z,100535.53
2019-03-18T02:37:52.813Z,100538.19
2019-03-18T02:40:24.135Z,100549.72
2019-03-18T02:42:55.498Z,100548.84
2019-03-18T02:45:26.864Z,100555.05
2019-03-18T02:47:58.193Z,100552.84
2019-03-18T02:50:29.563Z,100555.03
2019-03-18T02:53:01.932Z,100556.81
2019-03-18T02:55:33.590Z,100557.70
2019-03-18T02:58:05.024Z,100559.93
2019-03-18T03:00:36.345Z,100558.58
2019-03-18T03:03:07.662Z,100561.67
2019-03-18T03:05:39.023Z,100559.89
2019-03-18T03:08:10.293Z,100563.41
2019-03-18T03:10:41.557Z,100566.52
2019-03-18T03:13:12.828Z,100570.95
2019-03-18T03:15:44.010Z,100565.61
2019-03-18T03:18:15.396Z,100566.06
2019-03-18T03:20:46.702Z,100564.30
2019-03-18T03:23:18.041Z,100569.66
2019-03-18T03:25:49.409Z,100564.34
2019-03-18T03:28:20.658Z,100572.33
2019-03-18T03:30:53.375Z,100575.42
2019-03-18T03:33:24.732Z,100581.17
2019-03-18T03:35:56.173Z,100578.53
2019-03-18T03:38:27.537Z,100578.07
2019-03-18T03:40:58.886Z,100585.19
2019-03-18T03:43:30.242Z,100590.95
2019-03-18T03:46:01.533Z,100593.16
2019-03-18T03:48:32.974Z,100596.72
2019-03-18T03:51:04.290Z,100603.37
2019-03-18T03:53:35.587Z,100601.12
2019-03-18T03:56:08.709Z,100603.81
2019-03-18T03:58:39.998Z,100604.22
2019-03-18T04:01:11.335Z,100605.11
2019-03-18T04:03:42.704Z,100610.00
2019-03-18T04:06:13.986Z,100611.33
2019-03-18T04:08:45.306Z,100604.67
2019-03-18T04:11:16.686Z,100605.58
2019-03-18T04:13:47.790Z,100609.11
2019-03-18T04:16:19.096Z,100609.09
2019-03-18T04:18:50.355Z,100609.07
2019-03-18T04:21:22.633Z,100607.27
2019-03-18T04:23:53.922Z,100615.66
2019-03-18T04:26:26.315Z,100618.76
2019-03-18T04:28:57.584Z,100624.45
2019-03-18T04:31:28.869Z,100615.87
2019-03-18T04:34:00.558Z,100612.71
2019-03-18T04:36:32.064Z,100625.66
2019-03-18T04:39:04.658Z,100625.65
2019-03-18T04:41:35.898Z,100629.49
2019-03-18T04:44:07.761Z,100631.66
2019-03-18T04:46:39.517Z,100634.28
2019-03-18T04:49:11.277Z,100638.61
2019-03-18T04:51:42.722Z,100637.64
2019-03-18T04:54:15.095Z,100646.95
2019-03-18T04:56:46.862Z,100654.78
2019-03-18T04:59:18.613Z,100647.56
2019-03-18T05:01:50.472Z,100658.63
2019-03-18T05:04:22.055Z,100657.14
2019-03-18T05:06:53.478Z,100655.62
2019-03-18T05:09:25.136Z,100654.37
2019-03-18T05:11:56.723Z,100653.67
2019-03-18T05:14:27.921Z,100659.17
2019-03-18T05:16:59.492Z,100647.50
2019-03-18T05:19:30.749Z,100653.80
2019-03-18T05:22:02.089Z,100650.26
2019-03-18T05:24:33.368Z,100658.19
2019-03-18T05:27:04.780Z,100664.21
2019-03-18T05:29:36.338Z,100671.37
2019-03-18T05:32:07.682Z,100672.05
2019-03-18T05:34:39.305Z,100669.78
2019-03-18T05:37:10.494Z,100675.41
2019-03-18T05:39:41.826Z,100680.49
2019-03-18T05:42:13.020Z,100684.95
2019-03-18T05:44:44.278Z,100682.99
2019-03-18T05:47:15.617Z,100682.95
2019-03-18T05:49:47.024Z,100685.69
2019-03-18T05:52:18.378Z,100691.27
2019-03-18T05:54:49.696Z,100691.19
2019-03-18T05:57:20.973Z,100699.34
2019-03-18T05:59:52.231Z,100693.89
2019-03-18T06:02:23.785Z,100709.22
2019-03-18T06:04:55.476Z,100699.22
2019-03-18T06:07:27.071Z,100695.92
2019-03-18T06:09:58.774Z,100706.48
2019-03-18T06:12:30.381Z,100706.88
2019-03-18T06:15:02.247Z,100704.21
2019-03-18T06:17:34.005Z,100705.37
2019-03-18T06:20:08.232Z,100714.88
2019-03-18T06:22:39.624Z,100714.83
2019-03-18T06:25:11.208Z,100717.23
2019-03-18T06:27:42.917Z,100719.73
2019-03-18T06:30:15.490Z,100714.28
2019-03-18T06:32:46.778Z,100728.59
2019-03-18T06:35:20.546Z,100745.22
2019-03-18T06:37:51.323Z,100738.36
2019-03-18T06:40:22.702Z,100727.47
2019-03-18T06:42:54.369Z,100722.81
2019-03-18T06:45:26.219Z,100730.40
2019-03-18T06:48:04.744Z,100723.73
2019-03-18T06:50:30.865Z,100723.50
2019-03-18T06:53:02.720Z,100723.19
2019-03-18T06:55:34.484Z,100730.92
2019-03-18T06:58:06.234Z,100725.90
2019-03-18T07:00:37.796Z,100726.98
2019-03-18T07:03:09.187Z,100730.40
2019-03-18T07:05:40.485Z,100729.97
2019-03-18T07:08:11.766Z,100737.03
2019-03-18T07:10:44.155Z,100728.59
2019-03-18T07:13:15.970Z,100727.40
2019-03-18T07:15:47.713Z,100731.73
2019-03-18T07:18:19.376Z,100735.59
2019-03-18T07:20:51.232Z,100736.09
2019-03-18T07:23:22.778Z,100739.22
2019-03-18T07:25:55.993Z,100756.40
2019-03-18T07:28:27.362Z,100748.52
2019-03-18T07:30:58.616Z,100748.30
2019-03-18T07:33:30.224Z,100754.08
2019-03-18T07:36:01.986Z,100758.48
2019-03-18T07:38:33.745Z,100761.06
2019-03-18T07:41:05.392Z,100764.27
2019-03-18T07:43:37.265Z,100767.46
2019-03-18T07:46:09.015Z,100764.33
2019-03-18T07:48:40.651Z,100766.62
2019-03-18T07:51:12.232Z,100764.50
2019-03-18T07:53:44.029Z,100761.65
2019-03-18T07:56:15.877Z,100761.28
2019-03-18T07:58:49.061Z,100755.93
2019-03-18T08:01:19.905Z,100757.06
2019-03-18T08:03:51.549Z,100755.23
2019-03-18T08:06:23.392Z,100757.67
2019-03-18T08:08:55.166Z,100757.87
2019-03-18T08:11:26.848Z,100763.20
2019-03-18T08:13:58.454Z,100756.65
2019-03-18T08:16:30.223Z,100750.28
2019-03-18T08:19:01.921Z,100755.97
2019-03-18T08:21:33.330Z,100756.23
2019-03-18T08:24:04.659Z,100755.92
2019-03-18T08:26:36.011Z,100756.13
2019-03-18T08:29:07.424Z,100765.56
2019-03-18T08:31:39.725Z,100763.47
2019-03-18T08:34:11.043Z,100761.23
2019-03-18T08:36:42.451Z,100749.61
2019-03-18T08:39:13.809Z,100759.69
2019-03-18T08:41:45.096Z,100756.97
2019-03-18T08:44:16.502Z,100769.52
2019-03-18T08:46:47.767Z,100765.70
2019-03-18T08:49:20.031Z,100760.70
2019-03-18T08:51:51.344Z,100766.53
2019-03-18T08:54:22.694Z,100769.58
2019-03-18T08:56:54.051Z,100771.95
2019-03-18T08:59:25.377Z,100774.02
2019-03-18T09:01:56.732Z,100780.90
2019-03-18T09:04:28.186Z,100787.73
2019-03-18T09:06:59.758Z,100783.05
2019-03-18T09:09:31.138Z,100778.71
2019-03-18T09:12:02.429Z,100784.76
2019-03-18T09:14:33.772Z,100792.34
2019-03-18T09:17:05.340Z,100794.72
2019-03-18T09:19:37.009Z,100788.33
2019-03-18T09:22:08.651Z,100782.52
2019-03-18T09:24:40.521Z,100792.48
2019-03-18T09:27:12.271Z,100785.64
2019-03-18T09:29:44.049Z,100772.94
2019-03-18T09:32:15.662Z,100790.15
2019-03-18T09:34:47.387Z,100790.23
2019-03-18T09:37:19.161Z,100781.41
2019-03-18T09:39:50.529Z,100779.94
2019-03-18T09:42:21.797Z,100776.56
2019-03-18T09:44:53.042Z,100780.81
2019-03-18T09:47:24.356Z,100778.34
2019-03-18T09:49:56.982Z,100784.86
2019-03-18T09:52:28.272Z,100783.36
2019-03-18T09:54:59.526Z,100771.23
2019-03-18T09:57:30.744Z,100775.89
2019-03-18T10:00:01.961Z,100783.63
2019-03-18T10:02:33.246Z,100782.92
2019-03-18T10:05:05.941Z,100787.92
2019-03-18T10:07:39.698Z,100787.93
2019-03-18T10:10:11.628Z,100785.34
2019-03-18T10:12:42.758Z,100786.31
2019-03-18T10:15:18.327Z,100776.41
2019-03-18T10:17:49.574Z,100766.73
2019-03-18T10:20:22.761Z,100763.95
2019-03-18T10:22:55.614Z,100773.13
2019-03-18T10:25:26.143Z,100778.41
2019-03-18T10:27:57.408Z,100758.48
2019-03-18T10:30:28.903Z,100758.56
2019-03-18T10:33:00.319Z,100752.52
2019-03-18T10:35:31.509Z,100761.09
2019-03-18T10:38:05.689Z,100755.05
2019-03-18T10:40:36.947Z,100763.47
2019-03-18T10:43:08.292Z,100767.95
2019-03-18T10:45:40.469Z,100766.81
2019-03-18T10:48:12.150Z,100755.92
2019-03-18T10:50:43.475Z,100757.72
2019-03-18T10:53:14.733Z,100748.83
2019-03-18T10:55:45.870Z,100754.85
2019-03-18T10:58:18.210Z,100753.76
2019-03-18T11:00:49.728Z,100752.80
2019-03-18T11:03:21.101Z,100754.17
2019-03-18T11:05:52.478Z,100763.12
2019-03-18T11:08:24.256Z,100760.95
2019-03-18T11:10:55.474Z,100757.25
2019-03-18T11:13:26.708Z,100760.65
2019-03-18T11:15:59.347Z,100752.43
2019-03-18T11:18:30.708Z,100747.72
2019-03-18T11:21:02.424Z,100752.82
2019-03-18T11:23:34.065Z,100756.83
2019-03-18T11:26:05.839Z,100754.22
2019-03-18T11:28:37.487Z,100755.77
2019-03-18T11:31:09.098Z,100756.97
2019-03-18T11:33:40.703Z,100750.19
2019-03-18T11:36:12.243Z,100750.09
2019-03-18T11:38:43.859Z,100749.94
2019-03-18T11:41:17.525Z,100748.14
2019-03-18T11:43:48.441Z,100742.68
2019-03-18T11:46:21.124Z,100747.78
2019-03-18T11:48:52.366Z,100750.98
2019-03-18T11:51:26.581Z,100746.72
2019-03-18T11:53:58.247Z,100740.49
2019-03-18T11:56:29.749Z,100742.97
2019-03-18T11:59:00.837Z,100735.73
2019-03-18T12:01:32.054Z,100739.31
2019-03-18T12:04:03.424Z,100742.41
2019-03-18T12:06:35.090Z,100738.19
2019-03-18T12:09:06.988Z,100744.66
2019-03-18T12:11:38.921Z,100749.70
2019-03-18T12:14:10.524Z,100747.95
2019-03-18T12:16:41.795Z,100747.88
2019-03-18T12:19:12.925Z,100751.07
2019-03-18T12:21:44.301Z,100754.17
2019-03-18T12:24:15.660Z,100747.41
2019-03-18T12:26:49.203Z,100747.66
2019-03-18T12:29:19.439Z,100753.61
2019-03-18T12:31:50.560Z,100749.27
2019-03-18T12:34:24.066Z,100751.20
2019-03-18T12:36:56.584Z,100749.13
2019-03-18T12:39:29.067Z,100743.77
2019-03-18T12:42:00.562Z,100741.40
2019-03-18T12:44:31.697Z,100744.23
2019-03-18T12:47:02.974Z,100746.14
2019-03-18T12:49:34.307Z,100744.44
2019-03-18T12:52:05.546Z,100738.87
2019-03-18T12:54:36.851Z,100745.11
2019-03-18T12:57:08.122Z,100743.88
2019-03-18T12:59:39.282Z,100735.58
2019-03-18T13:02:10.502Z,100736.80
2019-03-18T13:04:42.751Z,100731.16
2019-03-18T13:07:14.407Z,100730.97
2019-03-18T13:09:46.011Z,100734.77
2019-03-18T13:12:17.475Z,100731.01
2019-03-18T13:14:48.919Z,100729.67
2019-03-18T13:17:20.481Z,100731.56
2019-03-18T13:19:51.829Z,100736.84
2019-03-18T13:22:22.938Z,100728.36
2019-03-18T13:24:54.100Z,100719.95
2019-03-18T13:27:25.684Z,100718.84
2019-03-18T13:29:57.045Z,100725.73
2019-03-18T13:32:28.312Z,100720.22
2019-03-18T13:34:59.644Z,100722.75
2019-03-18T13:37:33.486Z,100721.72
2019-03-18T13:40:10.199Z,100715.45
2019-03-18T13:42:41.904Z,100720.38
2019-03-18T13:45:21.330Z,100720.12
2019-03-18T13:47:52.680Z,100716.08
2019-03-18T13:50:24.335Z,100718.05
2019-03-18T13:52:56.302Z,100708.00
2019-03-18T13:55:27.745Z,100714.44
2019-03-18T13:57:59.830Z,100720.62
2019-03-18T14:00:31.495Z,100712.14
2019-03-18T14:03:03.231Z,100713.20
2019-03-18T14:05:34.510Z,100709.23
2019-03-18T14:08:05.788Z,100716.36
2019-03-18T14:10:37.268Z,100708.37
2019-03-18T14:13:08.931Z,100719.96
2019-03-18T14:15:40.694Z,100710.62
2019-03-18T14:18:12.754Z,100716.84
2019-03-18T14:20:44.516Z,100714.70
2019-03-18T14:23:16.274Z,100720.00
2019-03-18T14:25:50.900Z,100718.41
2019-03-18T14:28:22.593Z,100713.38
2019-03-18T14:30:54.424Z,100710.91
2019-03-18T14:33:28.320Z,100720.52
2019-03-18T14:36:00.261Z,100720.34
2019-03-18T14:38:31.642Z,100721.80
2019-03-18T14:41:04.154Z,100723.39
2019-03-18T14:43:35.471Z,100714.57
2019-03-18T14:46:06.794Z,100716.38
2019-03-18T14:48:38.245Z,100716.97
2019-03-18T14:51:09.658Z,100711.45
2019-03-18T14:53:41.067Z,100707.97
2019-03-18T14:56:12.400Z,100721.81
2019-03-18T14:58:43.735Z,100722.63
2019-03-18T15:01:15.212Z,100723.50
2019-03-18T15:03:46.501Z,100735.41
2019-03-18T15:06:17.850Z,100738.15
2019-03-18T15:08:49.190Z,100740.33
2019-03-18T15:11:20.471Z,100741.59
2019-03-18T15:13:51.761Z,100740.23
2019-03-18T15:16:23.038Z,100741.36
2019-03-18T15:18:55.256Z,100745.02
2019-03-18T15:21:26.633Z,100751.95
2019-03-18T15:23:57.861Z,100755.83
2019-03-18T15:26:29.123Z,100751.47
2019-03-18T15:29:00.453Z,100749.45
2019-03-18T15:31:31.649Z,100754.06
2019-03-18T15:34:02.985Z,100759.76
2019-03-18T15:36:34.361Z,100762.25
2019-03-18T15:39:06.992Z,100763.84
2019-03-18T15:41:39.947Z,100759.03
2019-03-18T15:44:11.238Z,100765.44
2019-03-18T15:46:42.649Z,100768.03
2019-03-18T15:49:13.942Z,100767.33
2019-03-18T15:51:45.300Z,100771.05
2019-03-18T15:54:16.763Z,100766.43
2019-03-18T15:56:48.292Z,100764.92
2019-03-18T15:59:20.163Z,100773.81
2019-03-18T16:01:51.683Z,100777.38
2019-03-18T16:04:23.060Z,100770.59
2019-03-18T16:06:54.402Z,100780.39
2019-03-18T16:09:25.739Z,100783.75
2019-03-18T16:11:57.126Z,100789.73
2019-03-18T16:14:28.509Z,100788.33
2019-03-18T16:17:02.178Z,100788.54
2019-03-18T16:19:32.875Z,100797.46
2019-03-18T16:22:04.284Z,100797.61
2019-03-18T16:24:35.650Z,100795.06
2019-03-18T16:27:07.065Z,100797.66
2019-03-18T16:29:38.480Z,100804.91
2019-03-18T16:32:11.670Z,100810.89
2019-03-18T16:34:43.295Z,100803.48
2019-03-18T16:37:14.548Z,100812.12
2019-03-18T16:39:45.832Z,100810.92
2019-03-18T16:42:17.185Z,100820.74
2019-03-18T16:44:48.424Z,100815.47
2019-03-18T16:47:19.737Z,100816.30
2019-03-18T16:49:51.194Z,100827.80
2019-03-18T16:52:34.999Z,100827.84
2019-03-18T16:54:56.028Z,100824.52
2019-03-18T16:57:27.583Z,100825.61
2019-03-18T16:59:58.849Z,100828.64
2019-03-18T17:02:30.223Z,100835.11
2019-03-18T17:05:01.404Z,100848.83
2019-03-18T17:07:32.677Z,100840.92
2019-03-18T17:10:06.701Z,100836.73
2019-03-18T17:12:38.031Z,100841.38
2019-03-18T17:15:11.513Z,100842.64
2019-03-18T17:17:42.858Z,100847.08
2019-03-18T17:20:16.315Z,100852.80
2019-03-18T17:22:50.178Z,100855.23
2019-03-18T17:25:28.663Z,100857.48
2019-03-18T17:27:59.979Z,100854.73
2019-03-18T17:30:31.332Z,100853.47
2019-03-18T17:33:02.547Z,100860.02
2019-03-18T17:35:33.819Z,100865.84
2019-03-18T17:38:05.092Z,100861.34
2019-03-18T17:40:36.421Z,100862.72
2019-03-18T17:43:07.724Z,100867.27
2019-03-18T17:45:39.213Z,100869.73
2019-03-18T17:48:10.535Z,100871.10
2019-03-18T17:50:41.831Z,100873.48
2019-03-18T17:53:13.169Z,100869.61
2019-03-18T17:55:44.555Z,100877.40
2019-03-18T17:58:15.819Z,100879.00
2019-03-18T18:00:48.711Z,100877.39
2019-03-18T18:03:19.372Z,100883.74
2019-03-18T18:05:51.587Z,100890.89
2019-03-18T18:08:23.059Z,100891.99
2019-03-18T18:10:54.325Z,100884.79
2019-03-18T18:13:25.526Z,100885.44
2019-03-18T18:15:56.864Z,100886.08
2019-03-18T18:18:28.288Z,100899.27
2019-03-18T18:20:59.567Z,100905.14
2019-03-18T18:23:30.942Z,100905.47
2019-03-18T18:26:02.417Z,100911.77
2019-03-18T18:28:33.708Z,100906.47
2019-03-18T18:31:05.390Z,100914.63
2019-03-18T18:33:36.813Z,100931.18
2019-03-18T18:36:08.047Z,100929.90
2019-03-18T18:38:39.540Z,100926.34
2019-03-18T18:41:12.550Z,100935.39
2019-03-18T18:43:43.840Z,100945.80
2019-03-18T18:46:16.389Z,100932.62
2019-03-18T18:48:48.616Z,100943.30
2019-03-18T18:51:19.979Z,100946.11
2019-03-18T18:53:51.150Z,100947.62
2019-03-18T18:56:22.403Z,100950.89
2019-03-18T18:58:54.554Z,100938.91
2019-03-18T19:01:25.825Z,100932.99
2019-03-18T19:03:58.224Z,100941.97
2019-03-18T19:06:29.450Z,100938.67
2019-03-18T19:09:00.843Z,100944.64
2019-03-18T19:11:32.306Z,100955.33
2019-03-18T19:14:03.841Z,100945.02
2019-03-18T19:16:35.092Z,100949.59
2019-03-18T19:19:06.290Z,100956.00
2019-03-18T19:21:37.839Z,100957.47
2019-03-18T19:24:09.075Z,100955.86
2019-03-18T19:26:40.752Z,100955.49
2019-03-18T19:29:13.207Z,100953.98
2019-03-18T19:31:44.545Z,100949.73
2019-03-18T19:34:15.877Z,100951.41
2019-03-18T19:36:47.181Z,100948.45
2019-03-18T19:39:18.354Z,100950.65
2019-03-18T19:41:49.681Z,100959.35
2019-03-18T19:44:21.009Z,100953.16
2019-03-18T19:46:52.242Z,100951.20
2019-03-18T19:49:23.609Z,100954.08
2019-03-18T19:51:54.847Z,100951.77
2019-03-18T19:54:26.025Z,100953.96
2019-03-18T19:56:58.320Z,100951.94
2019-03-18T19:59:29.545Z,100954.28
2019-03-18T20:02:01.117Z,100955.72
2019-03-18T20:04:32.376Z,100963.38
2019-03-18T20:07:03.790Z,100959.91
2019-03-18T20:09:35.144Z,100965.84
2019-03-18T20:12:06.396Z,100962.97
2019-03-18T20:14:37.594Z,100960.72
2019-03-18T20:17:08.871Z,100964.49
2019-03-18T20:19:40.137Z,100968.25
2019-03-18T20:22:11.430Z,100966.91
2019-03-18T20:24:42.819Z,100972.66
2019-03-18T20:27:14.234Z,100978.05
2019-03-18T20:29:45.336Z,100973.17
2019-03-18T20:32:16.657Z,100974.59
2019-03-18T20:34:48.060Z,100978.49
2019-03-18T20:37:19.402Z,100982.23
2019-03-18T20:39:50.758Z,100978.72
2019-03-18T20:42:22.072Z,100969.51
2019-03-18T20:44:53.856Z,100974.47
2019-03-18T20:47:25.277Z,100969.89
2019-03-18T20:49:56.598Z,100976.20
2019-03-18T20:52:27.934Z,100970.69
2019-03-18T20:54:59.427Z,100976.09
2019-03-18T20:57:31.261Z,100980.30
2019-03-18T21:00:02.626Z,100974.74
2019-03-18T21:02:34.156Z,100977.20
2019-03-18T21:05:07.571Z,100982.23
2019-03-18T21:07:38.774Z,100979.05
2019-03-18T21:10:12.783Z,100978.28
2019-03-18T21:12:44.151Z,100977.30
2019-03-18T21:15:17.393Z,100977.09
2019-03-18T21:17:48.694Z,100974.48
2019-03-18T21:20:21.218Z,100975.47
2019-03-18T21:22:52.479Z,100978.52
2019-03-18T21:25:23.777Z,100987.89
2019-03-18T21:27:55.088Z,100992.78
2019-03-18T21:30:26.419Z,100998.59
2019-03-18T21:32:57.674Z,101003.92
2019-03-18T21:35:28.947Z,100998.63
2019-03-18T21:38:00.307Z,101007.14
2019-03-18T21:40:31.644Z,101002.64
2019-03-18T21:43:02.912Z,101005.91
2019-03-18T21:45:34.205Z,101012.98
2019-03-18T21:48:05.394Z,101016.53
2019-03-18T21:50:36.502Z,101009.05
2019-03-18T21:53:07.852Z,101015.34
2019-03-18T21:55:39.111Z,101015.78
2019-03-18T21:58:10.421Z,101019.28
2019-03-18T22:00:41.751Z,101018.41
2019-03-18T22:03:13.076Z,101017.48
2019-03-18T22:05:44.366Z,101018.41
2019-03-18T22:08:15.610Z,101020.65
2019-03-18T22:10:46.799Z,101021.11
2019-03-18T22:13:18.113Z,101022.47
2019-03-18T22:15:49.421Z,101022.02
2019-03-18T22:18:22.298Z,101020.22
2019-03-18T22:20:53.651Z,101015.84
2019-03-18T22:23:24.885Z,101019.42
2019-03-18T22:25:56.100Z,101017.70
2019-03-18T22:28:27.412Z,101013.67
2019-03-18T22:30:58.662Z,101015.49
2019-03-18T22:33:31.021Z,101013.31
2019-03-18T22:36:02.339Z,101016.84
2019-03-18T22:38:33.768Z,101022.30
2019-03-18T22:41:05.244Z,101018.73
2019-03-18T22:43:36.508Z,101025.06
2019-03-18T22:46:07.802Z,101019.19
2019-03-18T22:48:38.916Z,101015.27
2019-03-18T22:51:10.325Z,101021.49
2019-03-18T22:53:41.612Z,101026.33
2019-03-18T22:56:12.873Z,101022.30
2019-03-18T22:58:44.079Z,101025.85
2019-03-18T23:01:16.748Z,101025.08
2019-03-18T23:03:47.958Z,101010.27
2019-03-18T23:06:19.202Z,101012.19
2019-03-18T23:08:50.532Z,101012.07
2019-03-18T23:11:22.082Z,101016.09
2019-03-18T23:13:53.321Z,101009.87
2019-03-18T23:16:24.592Z,101015.23
2019-03-18T23:18:55.912Z,101016.14
2019-03-18T23:21:27.572Z,101010.40
2019-03-18T23:23:59.428Z,101007.25
2019-03-18T23:26:30.784Z,101011.69
2019-03-18T23:29:01.980Z,101015.76
2019-03-18T23:31:33.056Z,101010.86
2019-03-18T23:34:04.303Z,101009.95
2019-03-18T23:36:36.786Z,101014.41
2019-03-18T23:39:08.607Z,101014.86
2019-03-18T23:41:39.879Z,101010.44
2019-03-18T23:44:11.013Z,101012.70
2019-03-18T23:46:42.182Z,101013.66
2019-03-18T23:49:13.306Z,101009.66
2019-03-18T23:51:44.490Z,101008.33
2019-03-18T23:54:15.736Z,101014.59
2019-03-18T23:56:47.009Z,100999.45
2019-03-18T23:59:18.169Z,100994.13
